createdAt,value
2018-05-26T00:01:30.461Z,98418.22
2018-05-26T00:03:58.750Z,98415.97
2018-05-26T00:06:27.034Z,98413.06
2018-05-26T00:08:55.321Z,98418.41
2018-05-26T00:11:24.365Z,98419.37
2018-05-26T00:13:52.664Z,98420.61
2018-05-26T00:16:20.909Z,98419.47
2018-05-26T00:18:49.168Z,98418.55
2018-05-26T00:21:17.454Z,98417.81
2018-05-26T00:23:45.735Z,98420.19
2018-05-26T00:26:14.052Z,98421.91
2018-05-26T00:28:42.373Z,98422.81
2018-05-26T00:31:10.628Z,98419.30
2018-05-26T00:33:40.043Z,98417.66
2018-05-26T00:36:11.415Z,98419.82
2018-05-26T00:38:43.456Z,98421.70
2018-05-26T00:41:15.739Z,98426.41
2018-05-26T00:43:51.373Z,98425.22
2018-05-26T00:46:23.746Z,98424.69
2018-05-26T00:48:54.362Z,98421.58
2018-05-26T00:51:22.979Z,98422.42
2018-05-26T00:53:51.230Z,98423.17
2018-05-26T00:56:20.261Z,98425.06
2018-05-26T00:58:48.535Z,98425.14
2018-05-26T01:01:16.842Z,98423.05
2018-05-26T01:03:45.094Z,98430.10
2018-05-26T01:06:13.365Z,98435.61
2018-05-26T01:08:41.621Z,98438.06
2018-05-26T01:11:09.886Z,98436.05
2018-05-26T01:13:38.929Z,98433.65
2018-05-26T01:16:07.177Z,98433.34
2018-05-26T01:18:35.449Z,98430.59
2018-05-26T01:21:03.716Z,98427.50
2018-05-26T01:23:31.973Z,98419.95
2018-05-26T01:26:00.230Z,98424.25
2018-05-26T01:28:28.512Z,98429.25
2018-05-26T01:30:56.781Z,98425.72
2018-05-26T01:33:25.035Z,98424.80
2018-05-26T01:35:53.314Z,98426.02
2018-05-26T01:38:21.569Z,98423.94
2018-05-26T01:40:49.825Z,98424.45
2018-05-26T01:43:18.096Z,98426.16
2018-05-26T01:45:47.197Z,98424.92
2018-05-26T01:48:16.213Z,98420.98
2018-05-26T01:50:44.527Z,98418.77
2018-05-26T01:53:12.778Z,98418.23
2018-05-26T01:55:41.033Z,98414.76
2018-05-26T01:58:09.333Z,98412.53
2018-05-26T02:00:37.616Z,98413.15
2018-05-26T02:03:05.861Z,98406.77
2018-05-26T02:05:34.139Z,98406.84
2018-05-26T02:08:02.431Z,98414.27
2018-05-26T02:10:30.677Z,98416.83
2018-05-26T02:12:58.967Z,98412.41
2018-05-26T02:15:27.233Z,98410.65
2018-05-26T02:17:55.572Z,98418.84
2018-05-26T02:20:23.841Z,98420.72
2018-05-26T02:22:52.098Z,98416.53
2018-05-26T02:25:20.362Z,98416.60
2018-05-26T02:27:48.632Z,98410.31
2018-05-26T02:30:16.898Z,98420.20
2018-05-26T02:32:45.153Z,98424.17
2018-05-26T02:35:14.274Z,98427.22
2018-05-26T02:37:42.534Z,98429.70
2018-05-26T02:40:10.862Z,98422.86
2018-05-26T02:42:39.135Z,98430.72
2018-05-26T02:45:07.389Z,98430.42
2018-05-26T02:47:35.663Z,98418.66
2018-05-26T02:50:03.917Z,98421.31
2018-05-26T02:52:32.168Z,98417.53
2018-05-26T02:55:00.438Z,98420.54
2018-05-26T02:57:28.704Z,98428.66
2018-05-26T02:59:56.980Z,98417.58
2018-05-26T03:02:25.262Z,98413.14
2018-05-26T03:04:58.981Z,98417.23
2018-05-26T03:07:33.511Z,98423.90
2018-05-26T03:10:07.878Z,98424.63
2018-05-26T03:12:41.750Z,98434.59
2018-05-26T03:15:09.385Z,98437.73
2018-05-26T03:20:38.471Z,98442.73
2018-05-26T03:23:06.727Z,98439.33
2018-05-26T03:25:34.995Z,98439.88
2018-05-26T03:28:03.265Z,98442.92
2018-05-26T03:30:31.525Z,98445.14
2018-05-26T03:33:00.596Z,98441.89
2018-05-26T03:35:28.867Z,98441.89
2018-05-26T03:37:57.118Z,98438.83
2018-05-26T03:40:25.393Z,98438.66
2018-05-26T03:42:53.684Z,98443.82
2018-05-26T03:45:21.938Z,98448.08
2018-05-26T03:47:50.249Z,98445.52
2018-05-26T03:50:18.524Z,98449.34
2018-05-26T03:52:46.796Z,98443.38
2018-05-26T03:55:42.596Z,98456.75
2018-05-26T03:58:28.680Z,98451.51
2018-05-26T04:00:56.965Z,98456.60
2018-05-26T04:03:25.226Z,98459.70
2018-05-26T04:05:53.571Z,98457.27
2018-05-26T04:08:21.773Z,98471.07
2018-05-26T04:10:50.093Z,98464.84
2018-05-26T04:13:18.374Z,98469.94
2018-05-26T04:15:46.641Z,98473.19
2018-05-26T04:18:14.985Z,98482.77
2018-05-26T04:20:43.284Z,98485.09
2018-05-26T04:23:11.556Z,98486.27
2018-05-26T04:25:39.825Z,98487.83
2018-05-26T04:28:08.081Z,98489.05
2018-05-26T04:30:36.376Z,98491.95
2018-05-26T04:33:04.651Z,98496.07
2018-05-26T04:35:32.924Z,98488.81
2018-05-26T04:38:01.213Z,98491.67
2018-05-26T04:40:29.517Z,98498.58
2018-05-26T04:42:57.836Z,98493.66
2018-05-26T04:45:26.116Z,98491.45
2018-05-26T04:47:54.373Z,98492.61
2018-05-26T04:50:24.345Z,98500.66
2018-05-26T04:52:52.621Z,98501.38
2018-05-26T04:55:20.930Z,98506.87
2018-05-26T04:57:49.220Z,98506.80
2018-05-26T05:00:18.265Z,98507.87
2018-05-26T05:02:46.530Z,98507.59
2018-05-26T05:05:14.802Z,98510.50
2018-05-26T05:07:43.097Z,98510.59
2018-05-26T05:10:11.370Z,98507.80
2018-05-26T05:12:39.625Z,98511.19
2018-05-26T05:15:07.908Z,98505.65
2018-05-26T05:17:36.199Z,98504.28
2018-05-26T05:20:04.457Z,98501.50
2018-05-26T05:22:32.741Z,98500.13
2018-05-26T05:25:01.093Z,98509.77
2018-05-26T05:27:29.351Z,98508.69
2018-05-26T05:29:58.386Z,98503.70
2018-05-26T05:32:26.714Z,98501.94
2018-05-26T05:34:54.992Z,98501.64
2018-05-26T05:37:23.264Z,98502.19
2018-05-26T05:39:51.517Z,98491.02
2018-05-26T05:42:19.786Z,98497.55
2018-05-26T05:44:48.072Z,98499.52
2018-05-26T05:47:16.328Z,98503.46
2018-05-26T05:49:44.651Z,98498.84
2018-05-26T05:52:12.920Z,98497.64
2018-05-26T05:54:41.173Z,98498.20
2018-05-26T05:57:10.227Z,98502.47
2018-05-26T05:59:38.579Z,98500.66
2018-05-26T06:02:07.637Z,98504.14
2018-05-26T06:04:35.913Z,98506.34
2018-05-26T06:07:04.215Z,98504.97
2018-05-26T06:09:32.468Z,98516.86
2018-05-26T06:12:00.743Z,98515.30
2018-05-26T06:14:29.025Z,98520.23
2018-05-26T06:16:57.280Z,98515.16
2018-05-26T06:19:25.565Z,98516.16
2018-05-26T06:21:53.849Z,98523.77
2018-05-26T06:24:22.133Z,98518.94
2018-05-26T06:26:50.381Z,98526.34
2018-05-26T06:29:18.653Z,98519.73
2018-05-26T06:31:46.949Z,98514.42
2018-05-26T06:34:15.168Z,98524.94
2018-05-26T06:36:44.217Z,98524.78
2018-05-26T06:39:12.457Z,98524.33
2018-05-26T06:41:40.720Z,98523.45
2018-05-26T06:44:09.799Z,98529.40
2018-05-26T06:46:38.076Z,98523.53
2018-05-26T06:49:07.121Z,98528.65
2018-05-26T06:51:35.393Z,98525.92
2018-05-26T06:54:03.648Z,98526.87
2018-05-26T06:56:31.909Z,98521.80
2018-05-26T06:59:00.952Z,98530.69
2018-05-26T07:01:29.205Z,98529.46
2018-05-26T07:03:57.452Z,98529.17
2018-05-26T07:06:26.531Z,98529.83
2018-05-26T07:08:54.842Z,98529.33
2018-05-26T07:11:23.101Z,98523.42
2018-05-26T07:13:52.137Z,98526.34
2018-05-26T07:16:20.408Z,98520.95
2018-05-26T07:18:48.737Z,98518.06
2018-05-26T07:21:17.013Z,98524.94
2018-05-26T07:23:45.260Z,98523.53
2018-05-26T07:26:13.534Z,98517.94
2018-05-26T07:28:41.839Z,98521.66
2018-05-26T07:31:10.096Z,98520.68
2018-05-26T07:33:38.387Z,98518.72
2018-05-26T07:36:06.652Z,98519.12
2018-05-26T07:38:34.939Z,98522.39
2018-05-26T07:41:03.189Z,98520.58
2018-05-26T07:43:31.477Z,98518.05
2018-05-26T07:45:59.733Z,98523.13
2018-05-26T07:48:28.012Z,98519.45
2018-05-26T07:50:56.292Z,98519.55
2018-05-26T07:53:24.557Z,98516.73
2018-05-26T07:55:52.828Z,98515.95
2018-05-26T07:58:21.117Z,98514.01
2018-05-26T08:00:49.359Z,98512.37
2018-05-26T08:03:18.384Z,98511.69
2018-05-26T08:05:46.652Z,98519.14
2018-05-26T08:08:14.905Z,98515.20
2018-05-26T08:10:43.169Z,98507.80
2018-05-26T08:13:12.205Z,98506.85
2018-05-26T08:15:40.461Z,98509.48
2018-05-26T08:18:08.710Z,98510.48
2018-05-26T08:20:37.738Z,98512.23
2018-05-26T08:23:06.001Z,98513.80
2018-05-26T08:25:34.258Z,98513.02
2018-05-26T08:28:03.297Z,98519.63
2018-05-26T08:30:31.549Z,98517.17
2018-05-26T08:32:59.817Z,98524.14
2018-05-26T08:35:28.096Z,98517.28
2018-05-26T08:37:56.369Z,98517.85
2018-05-26T08:40:25.394Z,98518.48
2018-05-26T08:42:53.672Z,98521.36
2018-05-26T08:45:21.928Z,98520.70
2018-05-26T08:47:50.192Z,98525.77
2018-05-26T08:50:19.257Z,98527.20
2018-05-26T08:52:47.511Z,98523.14
2018-05-26T08:55:15.766Z,98525.70
2018-05-26T08:57:44.030Z,98522.91
2018-05-26T09:00:12.286Z,98519.66
2018-05-26T09:02:41.309Z,98521.53
2018-05-26T09:05:09.582Z,98521.01
2018-05-26T09:07:37.846Z,98521.24
2018-05-26T09:10:06.105Z,98528.00
2018-05-26T09:12:35.222Z,98523.27
2018-05-26T09:15:03.515Z,98527.53
2018-05-26T09:17:31.777Z,98530.41
2018-05-26T09:20:00.055Z,98522.36
2018-05-26T09:22:28.308Z,98524.45
2018-05-26T09:24:57.341Z,98525.74
2018-05-26T09:27:25.608Z,98534.17
2018-05-26T09:29:53.861Z,98530.72
2018-05-26T09:32:22.121Z,98531.20
2018-05-26T09:34:52.385Z,98531.40
2018-05-26T09:37:20.677Z,98530.84
2018-05-26T09:39:48.945Z,98535.59
2018-05-26T09:42:17.193Z,98536.91
2018-05-26T09:44:45.466Z,98539.33
2018-05-26T09:47:13.758Z,98533.42
2018-05-26T09:49:42.039Z,98539.45
2018-05-26T09:52:10.304Z,98538.80
2018-05-26T09:54:38.583Z,98536.70
2018-05-26T09:57:06.845Z,98529.56
2018-05-26T09:59:35.112Z,98532.03
2018-05-26T10:02:03.414Z,98525.62
2018-05-26T10:04:31.697Z,98530.98
2018-05-26T10:07:00.067Z,98530.51
2018-05-26T10:09:28.325Z,98525.00
2018-05-26T10:11:57.348Z,98530.20
2018-05-26T10:14:25.615Z,98525.35
2018-05-26T10:16:53.885Z,98524.03
2018-05-26T10:19:22.140Z,98523.88
2018-05-26T10:21:51.174Z,98520.17
2018-05-26T10:24:19.428Z,98522.31
2018-05-26T10:26:47.712Z,98515.30
2018-05-26T10:29:15.974Z,98520.70
2018-05-26T10:31:44.228Z,98525.10
2018-05-26T10:34:13.246Z,98514.13
2018-05-26T10:36:41.516Z,98522.63
2018-05-26T10:39:09.781Z,98524.13
2018-05-26T10:41:38.825Z,98520.81
2018-05-26T10:44:07.077Z,98518.66
2018-05-26T10:46:35.341Z,98516.14
2018-05-26T10:49:03.628Z,98522.91
2018-05-26T10:51:31.889Z,98518.72
2018-05-26T10:54:00.917Z,98521.68
2018-05-26T10:56:29.185Z,98515.56
2018-05-26T10:58:57.449Z,98516.98
2018-05-26T11:01:25.701Z,98521.36
2018-05-26T11:03:54.733Z,98525.77
2018-05-26T11:06:22.992Z,98514.58
2018-05-26T11:08:51.254Z,98522.23
2018-05-26T11:11:20.359Z,98519.91
2018-05-26T11:13:49.372Z,98517.63
2018-05-26T11:16:17.625Z,98518.73
2018-05-26T11:18:45.935Z,98518.34
2018-05-26T11:21:14.196Z,98520.28
2018-05-26T11:23:42.510Z,98522.00
2018-05-26T11:26:10.829Z,98512.06
2018-05-26T11:28:39.210Z,98515.89
2018-05-26T11:31:08.270Z,98524.05
2018-05-26T11:33:36.589Z,98511.47
2018-05-26T11:36:04.844Z,98505.83
2018-05-26T11:38:33.859Z,98510.30
2018-05-26T11:41:02.133Z,98510.38
2018-05-26T11:43:30.382Z,98502.69
2018-05-26T11:45:58.633Z,98503.98
2018-05-26T11:48:26.904Z,98502.88
2018-05-26T11:50:55.205Z,98504.55
2018-05-26T11:53:23.497Z,98510.48
2018-05-26T11:55:51.737Z,98505.86
2018-05-26T11:58:19.984Z,98514.92
2018-05-26T12:00:48.258Z,98513.19
2018-05-26T12:03:16.521Z,98514.13
2018-05-26T12:05:44.777Z,98511.73
2018-05-26T12:08:13.816Z,98504.65
2018-05-26T12:10:42.081Z,98507.30
2018-05-26T12:13:10.334Z,98515.63
2018-05-26T12:15:39.879Z,98511.87
2018-05-26T12:18:08.478Z,98515.66
2018-05-26T12:20:37.581Z,98516.83
2018-05-26T12:23:05.832Z,98515.12
2018-05-26T12:25:34.137Z,98515.69
2018-05-26T12:28:02.382Z,98511.78
2018-05-26T12:30:31.445Z,98506.94
2018-05-26T12:32:59.722Z,98507.79
2018-05-26T12:35:28.741Z,98515.68
2018-05-26T12:37:56.991Z,98510.72
2018-05-26T12:40:25.283Z,98513.50
2018-05-26T12:42:53.536Z,98508.45
2018-05-26T12:45:22.569Z,98509.70
2018-05-26T12:47:50.824Z,98508.79
2018-05-26T12:50:19.088Z,98507.05
2018-05-26T12:52:47.399Z,98505.56
2018-05-26T12:55:15.669Z,98506.50
2018-05-26T12:57:43.935Z,98506.22
2018-05-26T13:00:12.186Z,98497.48
2018-05-26T13:02:41.216Z,98491.09
2018-05-26T13:05:09.468Z,98487.95
2018-05-26T13:07:37.721Z,98492.41
2018-05-26T13:10:06.758Z,98491.42
2018-05-26T13:12:35.035Z,98494.20
2018-05-26T13:15:03.298Z,98493.40
2018-05-26T13:17:31.570Z,98490.95
2018-05-26T13:19:59.822Z,98497.80
2018-05-26T13:22:28.832Z,98494.54
2018-05-26T13:24:57.102Z,98497.02
2018-05-26T13:27:26.129Z,98496.61
2018-05-26T13:29:54.400Z,98489.83
2018-05-26T13:32:22.677Z,98488.32
2018-05-26T13:34:50.926Z,98490.22
2018-05-26T13:37:19.185Z,98484.63
2018-05-26T13:39:47.454Z,98480.39
2018-05-26T13:42:15.698Z,98479.70
2018-05-26T13:44:43.962Z,98477.07
2018-05-26T13:47:12.228Z,98475.10
2018-05-26T13:49:40.486Z,98471.17
2018-05-26T13:52:08.780Z,98474.08
2018-05-26T13:54:37.095Z,98482.34
2018-05-26T13:57:05.368Z,98480.61
2018-05-26T13:59:33.621Z,98478.27
2018-05-26T14:02:01.894Z,98482.28
2018-05-26T14:04:30.158Z,98475.50
2018-05-26T14:06:58.438Z,98476.58
2018-05-26T14:09:27.134Z,98465.80
2018-05-26T14:11:55.389Z,98471.42
2018-05-26T14:14:23.641Z,98468.73
2018-05-26T14:16:52.683Z,98470.97
2018-05-26T14:19:20.927Z,98466.63
2018-05-26T14:21:49.185Z,98474.89
2018-05-26T14:24:18.276Z,98471.81
2018-05-26T14:26:47.513Z,98474.20
2018-05-26T14:29:15.773Z,98469.48
2018-05-26T14:31:44.066Z,98470.55
2018-05-26T14:34:12.312Z,98467.73
2018-05-26T14:36:40.622Z,98468.61
2018-05-26T14:39:08.891Z,98466.46
2018-05-26T14:41:37.144Z,98462.81
2018-05-26T14:44:06.170Z,98461.98
2018-05-26T14:46:34.446Z,98459.95
2018-05-26T14:49:02.701Z,98460.08
2018-05-26T14:51:30.978Z,98451.02
2018-05-26T14:53:59.246Z,98454.06
2018-05-26T14:56:28.508Z,98455.47
2018-05-26T14:58:56.829Z,98454.84
2018-05-26T15:01:25.854Z,98452.50
2018-05-26T15:03:54.125Z,98451.27
2018-05-26T15:06:22.500Z,98451.50
2018-05-26T15:08:50.804Z,98445.66
2018-05-26T15:11:19.109Z,98443.95
2018-05-26T15:13:47.360Z,98450.02
2018-05-26T15:16:15.647Z,98445.84
2018-05-26T15:18:43.892Z,98448.51
2018-05-26T15:21:12.161Z,98447.41
2018-05-26T15:23:40.441Z,98447.24
2018-05-26T15:26:08.705Z,98452.33
2018-05-26T15:28:36.961Z,98445.48
2018-05-26T15:31:06.009Z,98435.65
2018-05-26T15:33:34.269Z,98439.92
2018-05-26T15:36:02.552Z,98443.89
2018-05-26T15:38:30.817Z,98446.30
2018-05-26T15:40:59.075Z,98443.03
2018-05-26T15:43:27.340Z,98442.91
2018-05-26T15:45:55.620Z,98438.56
2018-05-26T15:48:24.659Z,98440.30
2018-05-26T15:50:52.913Z,98437.66
2018-05-26T15:53:21.185Z,98435.48
2018-05-26T15:55:49.444Z,98435.45
2018-05-26T15:58:17.713Z,98437.16
2018-05-26T16:00:45.982Z,98433.55
2018-05-26T16:03:15.012Z,98433.72
2018-05-26T16:05:43.297Z,98436.50
2018-05-26T16:08:11.544Z,98436.11
2018-05-26T16:10:39.798Z,98436.78
2018-05-26T16:13:08.121Z,98437.40
2018-05-26T16:15:37.109Z,98438.02
2018-05-26T16:18:05.365Z,98437.09
2018-05-26T16:20:33.652Z,98432.91
2018-05-26T16:23:01.963Z,98435.20
2018-05-26T16:25:30.184Z,98432.72
2018-05-26T16:27:59.210Z,98427.43
2018-05-26T16:30:27.468Z,98431.19
2018-05-26T16:32:59.115Z,98425.34
2018-05-26T16:35:28.138Z,98428.77
2018-05-26T16:37:56.387Z,98430.16
2018-05-26T16:40:24.964Z,98428.91
2018-05-26T16:42:53.224Z,98431.73
2018-05-26T16:45:22.321Z,98437.28
2018-05-26T16:47:51.352Z,98438.92
2018-05-26T16:50:19.597Z,98440.34
2018-05-26T16:52:48.621Z,98445.19
2018-05-26T16:55:16.893Z,98446.53
2018-05-26T16:57:45.152Z,98442.74
2018-05-26T17:00:13.413Z,98443.80
2018-05-26T17:02:41.673Z,98443.22
2018-05-26T17:05:09.992Z,98437.11
2018-05-26T17:07:38.264Z,98438.11
2018-05-26T17:10:06.570Z,98440.98
2018-05-26T17:12:34.827Z,98437.23
2018-05-26T17:15:03.084Z,98437.33
2018-05-26T17:17:32.104Z,98440.33
2018-05-26T17:20:00.404Z,98444.39
2018-05-26T17:22:28.653Z,98442.03
2018-05-26T17:24:56.901Z,98437.28
2018-05-26T17:27:25.940Z,98439.05
2018-05-26T17:29:54.204Z,98440.60
2018-05-26T17:32:22.461Z,98436.61
2018-05-26T17:34:50.738Z,98439.95
2018-05-26T17:37:19.006Z,98434.19
2018-05-26T17:39:48.018Z,98440.41
2018-05-26T17:42:16.290Z,98447.09
2018-05-26T17:44:44.552Z,98442.06
2018-05-26T17:47:12.809Z,98448.91
2018-05-26T17:49:41.836Z,98439.63
2018-05-26T17:52:10.118Z,98433.66
2018-05-26T17:54:38.380Z,98440.31
2018-05-26T17:57:06.644Z,98434.31
2018-05-26T17:59:35.689Z,98428.05
2018-05-26T18:02:05.286Z,98434.92
2018-05-26T18:04:33.537Z,98435.98
2018-05-26T18:07:01.788Z,98432.88
2018-05-26T18:09:30.820Z,98437.59
2018-05-26T18:11:59.091Z,98431.63
2018-05-26T18:14:27.353Z,98439.73
2018-05-26T18:16:55.625Z,98440.48
2018-05-26T18:19:24.651Z,98435.33
2018-05-26T18:21:52.914Z,98443.86
2018-05-26T18:24:21.181Z,98439.95
2018-05-26T18:26:52.444Z,98428.05
2018-05-26T18:29:20.720Z,98446.03
2018-05-26T18:31:48.985Z,98444.98
2018-05-26T18:34:17.244Z,98446.41
2018-05-26T18:36:45.517Z,98441.78
2018-05-26T18:39:14.554Z,98439.67
2018-05-26T18:41:42.825Z,98436.83
2018-05-26T18:44:11.093Z,98433.70
2018-05-26T18:46:39.348Z,98436.80
2018-05-26T18:49:07.620Z,98446.44
2018-05-26T18:51:36.664Z,98438.34
2018-05-26T18:54:04.910Z,98442.30
2018-05-26T18:56:33.165Z,98438.78
2018-05-26T18:59:01.477Z,98442.23
2018-05-26T19:01:29.788Z,98442.34
2018-05-26T19:03:58.109Z,98447.09
2018-05-26T19:06:26.484Z,98454.30
2018-05-26T19:08:54.801Z,98464.22
2018-05-26T19:11:23.081Z,98465.52
2018-05-26T19:13:51.360Z,98469.50
2018-05-26T19:16:19.617Z,98471.98
2018-05-26T19:18:47.873Z,98471.66
2018-05-26T19:21:16.149Z,98467.00
2018-05-26T19:23:44.402Z,98469.62
2018-05-26T19:26:13.445Z,98464.09
2018-05-26T19:28:41.892Z,98473.94
2018-05-26T19:31:10.140Z,98476.08
2018-05-26T19:33:39.162Z,98484.59
2018-05-26T19:36:07.424Z,98484.65
2018-05-26T19:38:36.480Z,98487.45
2018-05-26T19:41:04.739Z,98484.45
2018-05-26T19:43:33.021Z,98480.95
2018-05-26T19:46:01.292Z,98481.88
2018-05-26T19:48:29.549Z,98482.52
2018-05-26T19:50:57.844Z,98481.55
2018-05-26T19:53:26.108Z,98481.02
2018-05-26T19:55:54.363Z,98497.01
2018-05-26T19:58:22.633Z,98493.78
2018-05-26T20:00:51.649Z,98495.36
2018-05-26T20:03:19.910Z,98495.97
2018-05-26T20:05:48.210Z,98495.73
2018-05-26T20:08:16.556Z,98494.21
2018-05-26T20:10:45.601Z,98493.41
2018-05-26T20:13:13.872Z,98499.27
2018-05-26T20:15:42.125Z,98493.53
2018-05-26T20:18:10.618Z,98488.20
2018-05-26T20:20:39.030Z,98490.00
2018-05-26T20:23:07.348Z,98492.11
2018-05-26T20:25:35.619Z,98492.27
2018-05-26T20:28:04.649Z,98494.84
2018-05-26T20:30:32.921Z,98498.59
2018-05-26T20:33:01.320Z,98501.50
2018-05-26T20:35:29.593Z,98497.28
2018-05-26T20:37:57.859Z,98504.61
2018-05-26T20:40:26.191Z,98506.48
2018-05-26T20:42:54.506Z,98508.55
2018-05-26T20:45:22.760Z,98509.41
2018-05-26T20:47:51.045Z,98509.20
2018-05-26T20:50:19.308Z,98512.07
2018-05-26T20:52:47.572Z,98513.30
2018-05-26T20:55:16.594Z,98513.22
2018-05-26T20:57:44.861Z,98518.02
2018-05-26T21:00:13.146Z,98525.53
2018-05-26T21:02:41.412Z,98529.13
2018-05-26T21:05:09.675Z,98524.81
2018-05-26T21:07:38.708Z,98524.42
2018-05-26T21:10:06.968Z,98528.13
2018-05-26T21:12:35.244Z,98531.47
2018-05-26T21:15:03.538Z,98527.75
2018-05-26T21:17:31.772Z,98528.38
2018-05-26T21:20:00.824Z,98538.83
2018-05-26T21:22:29.082Z,98536.08
2018-05-26T21:24:57.324Z,98537.30
2018-05-26T21:27:25.597Z,98527.48
2018-05-26T21:29:53.857Z,98529.05
2018-05-26T21:32:22.904Z,98533.61
2018-05-26T21:34:51.182Z,98536.67
2018-05-26T21:37:19.723Z,98542.84
2018-05-26T21:39:48.761Z,98539.14
2018-05-26T21:42:17.078Z,98544.38
2018-05-26T21:44:45.276Z,98542.29
2018-05-26T21:47:13.545Z,98541.24
2018-05-26T21:49:42.565Z,98542.88
2018-05-26T21:52:10.835Z,98547.81
2018-05-26T21:54:39.097Z,98544.09
2018-05-26T21:57:07.371Z,98547.63
2018-05-26T21:59:36.377Z,98546.45
2018-05-26T22:02:04.645Z,98544.91
2018-05-26T22:04:32.912Z,98546.43
2018-05-26T22:07:01.946Z,98545.31
2018-05-26T22:09:30.198Z,98545.98
2018-05-26T22:11:58.481Z,98548.05
2018-05-26T22:14:26.771Z,98542.91
2018-05-26T22:16:55.749Z,98537.41
2018-05-26T22:19:24.073Z,98540.27
2018-05-26T22:21:52.320Z,98535.47
2018-05-26T22:24:20.590Z,98539.02
2018-05-26T22:26:48.976Z,98539.13
2018-05-26T22:29:17.240Z,98538.31
2018-05-26T22:31:45.489Z,98537.97
2018-05-26T22:34:14.528Z,98539.78
2018-05-26T22:36:42.784Z,98533.20
2018-05-26T22:39:11.043Z,98530.77
2018-05-26T22:41:39.311Z,98532.46
2018-05-26T22:44:08.351Z,98531.24
2018-05-26T22:46:36.609Z,98522.25
2018-05-26T22:49:04.873Z,98523.73
2018-05-26T22:51:33.124Z,98515.90
2018-05-26T22:54:02.173Z,98508.25
2018-05-26T22:56:30.466Z,98508.05
2018-05-26T22:58:58.717Z,98506.52
2018-05-26T23:01:27.745Z,98513.22
2018-05-26T23:03:56.020Z,98507.50
2018-05-26T23:06:24.277Z,98512.39
2018-05-26T23:08:52.537Z,98501.55
2018-05-26T23:11:21.377Z,98512.95
2018-05-26T23:13:50.388Z,98508.98
2018-05-26T23:16:18.676Z,98508.05
2018-05-26T23:18:46.942Z,98511.38
2018-05-26T23:21:15.203Z,98509.27
2018-05-26T23:23:44.229Z,98503.70
2018-05-26T23:26:12.493Z,98501.47
2018-05-26T23:28:40.773Z,98497.03
2018-05-26T23:31:09.029Z,98495.73
2018-05-26T23:33:38.068Z,98501.15
2018-05-26T23:36:06.321Z,98504.17
2018-05-26T23:38:34.584Z,98504.69
2018-05-26T23:41:02.861Z,98504.59
2018-05-26T23:43:31.881Z,98506.76
2018-05-26T23:46:00.137Z,98511.89
2018-05-26T23:48:28.432Z,98507.09
2018-05-26T23:50:57.452Z,98505.47
2018-05-26T23:53:25.720Z,98512.41
2018-05-26T23:55:54.048Z,98508.14
2018-05-26T23:58:23.085Z,98506.95
